Los Angeles, California
Current Conditions -  °F | °C
As of 7:47 PM on Saturday 25 Oct 2014 (Local Time) from KCQT Reporting Station
Clear Clear  
Wind Chill: 21°   Ceiling: Unl
Heat Index: 21°   Visibility: 10mi
Dew Point: 15°   Wind: 0mph
Humidity: 70%   Direction: NA
Pressure: 29.99"   Gusts: NA
Location:  34.05°N, 118.24°W
Report Text: KCQT 260247Z AUTO 00000KT 10SM CLR 21/15 A2999 RMK AO2 SLP155 T02060150 53002
Loading
Personal Weather Stations






























Interactive Weather Map New forecast layout! Learn more

10-Day Weather Forecast

Advertisements
Track Severe Weather on mobile